sensor_id;sensor_type;location;lat;lon;timestamp;P1;durP1;ratioP1;P2;durP2;ratioP2
40611;SDS011;26317;44.894;20.286;2022-08-05T00:01:43;8.88;;;5.10;;
40611;SDS011;26317;44.894;20.286;2022-08-05T00:04:15;10.18;;;5.07;;
40611;SDS011;26317;44.894;20.286;2022-08-05T00:06:44;11.88;;;5.53;;
40611;SDS011;26317;44.894;20.286;2022-08-05T00:09:13;10.05;;;4.80;;
40611;SDS011;26317;44.894;20.286;2022-08-05T00:11:42;7.32;;;5.50;;
40611;SDS011;26317;44.894;20.286;2022-08-05T00:14:10;8.43;;;5.22;;
40611;SDS011;26317;44.894;20.286;2022-08-05T00:16:39;13.85;;;5.90;;
40611;SDS011;26317;44.894;20.286;2022-08-05T00:19:08;6.07;;;4.78;;
40611;SDS011;26317;44.894;20.286;2022-08-05T00:21:39;6.63;;;6.03;;
40611;SDS011;26317;44.894;20.286;2022-08-05T00:24:08;6.57;;;5.40;;
40611;SDS011;26317;44.894;20.286;2022-08-05T00:26:37;12.15;;;6.00;;
40611;SDS011;26317;44.894;20.286;2022-08-05T00:29:06;9.23;;;5.50;;
40611;SDS011;26317;44.894;20.286;2022-08-05T00:31:35;7.28;;;5.78;;
40611;SDS011;26317;44.894;20.286;2022-08-05T00:34:04;8.27;;;6.38;;
40611;SDS011;26317;44.894;20.286;2022-08-05T00:36:33;7.97;;;6.38;;
40611;SDS011;26317;44.894;20.286;2022-08-05T00:39:05;10.60;;;6.53;;
40611;SDS011;26317;44.894;20.286;2022-08-05T00:41:34;9.73;;;6.75;;
40611;SDS011;26317;44.894;20.286;2022-08-05T00:44:03;11.27;;;6.70;;
40611;SDS011;26317;44.894;20.286;2022-08-05T00:46:32;10.85;;;6.63;;
40611;SDS011;26317;44.894;20.286;2022-08-05T00:49:02;10.57;;;7.43;;
40611;SDS011;26317;44.894;20.286;2022-08-05T00:51:32;10.43;;;6.55;;
40611;SDS011;26317;44.894;20.286;2022-08-05T00:54:04;9.43;;;6.50;;
40611;SDS011;26317;44.894;20.286;2022-08-05T00:56:33;11.40;;;5.63;;
40611;SDS011;26317;44.894;20.286;2022-08-05T00:59:02;5.93;;;5.03;;
40611;SDS011;26317;44.894;20.286;2022-08-05T01:01:30;7.53;;;6.15;;
40611;SDS011;26317;44.894;20.286;2022-08-05T01:04:00;9.60;;;6.47;;
40611;SDS011;26317;44.894;20.286;2022-08-05T01:06:30;11.93;;;6.45;;
40611;SDS011;26317;44.894;20.286;2022-08-05T01:08:59;11.30;;;6.90;;
40611;SDS011;26317;44.894;20.286;2022-08-05T01:11:31;12.00;;;7.30;;
40611;SDS011;26317;44.894;20.286;2022-08-05T01:14:04;10.27;;;7.57;;
40611;SDS011;26317;44.894;20.286;2022-08-05T01:16:39;17.15;;;8.18;;
40611;SDS011;26317;44.894;20.286;2022-08-05T01:19:28;15.38;;;7.88;;
40611;SDS011;26317;44.894;20.286;2022-08-05T01:22:17;18.50;;;7.50;;
40611;SDS011;26317;44.894;20.286;2022-08-05T01:27:59;17.08;;;8.10;;
40611;SDS011;26317;44.894;20.286;2022-08-05T01:30:43;13.32;;;8.00;;
40611;SDS011;26317;44.894;20.286;2022-08-05T01:33:15;12.68;;;7.85;;
40611;SDS011;26317;44.894;20.286;2022-08-05T01:35:49;11.70;;;7.18;;
40611;SDS011;26317;44.894;20.286;2022-08-05T01:38:19;9.90;;;7.13;;
40611;SDS011;26317;44.894;20.286;2022-08-05T01:43:22;15.13;;;8.30;;
40611;SDS011;26317;44.894;20.286;2022-08-05T01:45:54;13.07;;;7.47;;
40611;SDS011;26317;44.894;20.286;2022-08-05T01:50:54;12.32;;;8.45;;
40611;SDS011;26317;44.894;20.286;2022-08-05T01:53:23;15.98;;;9.23;;
40611;SDS011;26317;44.894;20.286;2022-08-05T01:55:54;11.55;;;7.38;;
40611;SDS011;26317;44.894;20.286;2022-08-05T01:58:29;12.70;;;9.05;;
40611;SDS011;26317;44.894;20.286;2022-08-05T02:01:01;11.25;;;8.13;;
40611;SDS011;26317;44.894;20.286;2022-08-05T02:07:00;10.60;;;8.20;;
40611;SDS011;26317;44.894;20.286;2022-08-05T02:09:29;13.50;;;7.70;;
40611;SDS011;26317;44.894;20.286;2022-08-05T02:12:00;10.52;;;8.32;;
40611;SDS011;26317;44.894;20.286;2022-08-05T02:14:39;9.32;;;8.30;;
40611;SDS011;26317;44.894;20.286;2022-08-05T02:17:14;10.65;;;8.27;;
40611;SDS011;26317;44.894;20.286;2022-08-05T02:19:49;12.93;;;8.15;;
40611;SDS011;26317;44.894;20.286;2022-08-05T02:22:27;13.63;;;8.75;;
40611;SDS011;26317;44.894;20.286;2022-08-05T02:25:01;11.25;;;7.38;;
40611;SDS011;26317;44.894;20.286;2022-08-05T02:27:33;14.07;;;8.00;;
40611;SDS011;26317;44.894;20.286;2022-08-05T02:32:40;14.30;;;8.82;;
40611;SDS011;26317;44.894;20.286;2022-08-05T02:35:11;14.02;;;8.70;;
40611;SDS011;26317;44.894;20.286;2022-08-05T02:37:43;11.75;;;7.95;;
40611;SDS011;26317;44.894;20.286;2022-08-05T02:40:15;13.80;;;8.43;;
40611;SDS011;26317;44.894;20.286;2022-08-05T02:42:45;9.45;;;7.78;;
40611;SDS011;26317;44.894;20.286;2022-08-05T02:45:18;8.80;;;7.35;;
40611;SDS011;26317;44.894;20.286;2022-08-05T02:47:48;15.70;;;8.35;;
40611;SDS011;26317;44.894;20.286;2022-08-05T02:50:19;11.48;;;8.00;;
40611;SDS011;26317;44.894;20.286;2022-08-05T02:52:50;10.15;;;8.05;;
40611;SDS011;26317;44.894;20.286;2022-08-05T02:55:20;12.73;;;8.05;;
40611;SDS011;26317;44.894;20.286;2022-08-05T02:57:49;15.52;;;8.32;;
40611;SDS011;26317;44.894;20.286;2022-08-05T03:00:22;13.37;;;8.90;;
40611;SDS011;26317;44.894;20.286;2022-08-05T03:02:51;9.77;;;8.45;;
40611;SDS011;26317;44.894;20.286;2022-08-05T03:05:20;13.07;;;8.60;;
40611;SDS011;26317;44.894;20.286;2022-08-05T03:07:50;14.98;;;8.70;;
40611;SDS011;26317;44.894;20.286;2022-08-05T03:10:19;11.23;;;8.05;;
40611;SDS011;26317;44.894;20.286;2022-08-05T03:12:50;9.38;;;7.47;;
40611;SDS011;26317;44.894;20.286;2022-08-05T03:15:19;13.10;;;7.82;;
40611;SDS011;26317;44.894;20.286;2022-08-05T03:17:51;14.75;;;8.57;;
40611;SDS011;26317;44.894;20.286;2022-08-05T03:20:21;14.23;;;9.80;;
40611;SDS011;26317;44.894;20.286;2022-08-05T03:22:51;14.20;;;9.25;;
40611;SDS011;26317;44.894;20.286;2022-08-05T03:25:21;12.70;;;9.38;;
40611;SDS011;26317;44.894;20.286;2022-08-05T03:27:50;13.77;;;8.05;;
40611;SDS011;26317;44.894;20.286;2022-08-05T03:30:22;12.20;;;9.18;;
40611;SDS011;26317;44.894;20.286;2022-08-05T03:32:52;11.63;;;8.68;;
40611;SDS011;26317;44.894;20.286;2022-08-05T03:35:22;17.48;;;8.88;;
40611;SDS011;26317;44.894;20.286;2022-08-05T03:37:52;17.75;;;9.43;;
40611;SDS011;26317;44.894;20.286;2022-08-05T03:40:24;12.70;;;9.02;;
40611;SDS011;26317;44.894;20.286;2022-08-05T03:42:53;14.95;;;9.57;;
40611;SDS011;26317;44.894;20.286;2022-08-05T03:45:25;13.10;;;8.27;;
40611;SDS011;26317;44.894;20.286;2022-08-05T03:47:54;12.73;;;8.82;;
40611;SDS011;26317;44.894;20.286;2022-08-05T03:50:23;15.18;;;9.95;;
40611;SDS011;26317;44.894;20.286;2022-08-05T03:52:54;15.15;;;8.93;;
40611;SDS011;26317;44.894;20.286;2022-08-05T03:55:35;10.13;;;8.95;;
40611;SDS011;26317;44.894;20.286;2022-08-05T03:58:08;16.50;;;10.02;;
40611;SDS011;26317;44.894;20.286;2022-08-05T04:00:42;23.45;;;9.90;;
40611;SDS011;26317;44.894;20.286;2022-08-05T04:03:13;19.67;;;9.77;;
40611;SDS011;26317;44.894;20.286;2022-08-05T04:05:44;13.98;;;9.23;;
40611;SDS011;26317;44.894;20.286;2022-08-05T04:08:13;12.70;;;9.45;;
40611;SDS011;26317;44.894;20.286;2022-08-05T04:10:42;14.00;;;9.73;;
40611;SDS011;26317;44.894;20.286;2022-08-05T04:13:12;12.68;;;10.57;;
40611;SDS011;26317;44.894;20.286;2022-08-05T04:15:45;13.20;;;10.45;;
40611;SDS011;26317;44.894;20.286;2022-08-05T04:18:14;19.58;;;10.90;;
40611;SDS011;26317;44.894;20.286;2022-08-05T04:20:43;17.85;;;10.65;;
40611;SDS011;26317;44.894;20.286;2022-08-05T04:23:12;16.80;;;10.15;;
40611;SDS011;26317;44.894;20.286;2022-08-05T04:25:41;17.08;;;11.10;;
40611;SDS011;26317;44.894;20.286;2022-08-05T04:28:10;22.70;;;10.63;;
40611;SDS011;26317;44.894;20.286;2022-08-05T04:30:38;17.35;;;11.55;;
40611;SDS011;26317;44.894;20.286;2022-08-05T04:33:10;12.98;;;10.52;;
40611;SDS011;26317;44.894;20.286;2022-08-05T04:35:39;16.08;;;10.52;;
40611;SDS011;26317;44.894;20.286;2022-08-05T04:38:08;14.15;;;9.68;;
40611;SDS011;26317;44.894;20.286;2022-08-05T04:40:38;14.32;;;10.43;;
40611;SDS011;26317;44.894;20.286;2022-08-05T04:43:08;16.75;;;10.90;;
40611;SDS011;26317;44.894;20.286;2022-08-05T04:45:37;15.48;;;10.32;;
40611;SDS011;26317;44.894;20.286;2022-08-05T04:48:06;13.63;;;10.20;;
40611;SDS011;26317;44.894;20.286;2022-08-05T04:50:43;12.02;;;9.15;;
40611;SDS011;26317;44.894;20.286;2022-08-05T04:53:13;17.95;;;9.77;;
40611;SDS011;26317;44.894;20.286;2022-08-05T04:55:43;19.27;;;9.68;;
40611;SDS011;26317;44.894;20.286;2022-08-05T04:58:14;21.83;;;10.95;;
40611;SDS011;26317;44.894;20.286;2022-08-05T05:00:44;12.38;;;9.23;;
40611;SDS011;26317;44.894;20.286;2022-08-05T05:03:13;12.07;;;9.55;;
40611;SDS011;26317;44.894;20.286;2022-08-05T05:05:44;24.63;;;10.07;;
40611;SDS011;26317;44.894;20.286;2022-08-05T05:08:13;23.92;;;9.90;;
40611;SDS011;26317;44.894;20.286;2022-08-05T05:10:43;16.30;;;9.93;;
40611;SDS011;26317;44.894;20.286;2022-08-05T05:13:14;12.15;;;10.23;;
40611;SDS011;26317;44.894;20.286;2022-08-05T05:15:44;12.60;;;9.50;;
40611;SDS011;26317;44.894;20.286;2022-08-05T05:18:14;12.13;;;8.65;;
40611;SDS011;26317;44.894;20.286;2022-08-05T05:20:46;12.32;;;9.30;;
40611;SDS011;26317;44.894;20.286;2022-08-05T05:23:15;15.70;;;10.50;;
40611;SDS011;26317;44.894;20.286;2022-08-05T05:25:45;14.40;;;10.02;;
40611;SDS011;26317;44.894;20.286;2022-08-05T05:28:13;11.85;;;9.32;;
40611;SDS011;26317;44.894;20.286;2022-08-05T05:30:42;21.55;;;9.48;;
40611;SDS011;26317;44.894;20.286;2022-08-05T05:33:11;12.07;;;9.38;;
40611;SDS011;26317;44.894;20.286;2022-08-05T05:35:40;19.40;;;9.10;;
40611;SDS011;26317;44.894;20.286;2022-08-05T05:38:11;17.80;;;9.80;;
40611;SDS011;26317;44.894;20.286;2022-08-05T05:40:41;13.32;;;9.55;;
40611;SDS011;26317;44.894;20.286;2022-08-05T05:43:10;14.88;;;9.00;;
40611;SDS011;26317;44.894;20.286;2022-08-05T05:45:39;19.15;;;10.48;;
40611;SDS011;26317;44.894;20.286;2022-08-05T05:48:08;17.80;;;9.68;;
40611;SDS011;26317;44.894;20.286;2022-08-05T05:50:37;12.23;;;8.50;;
40611;SDS011;26317;44.894;20.286;2022-08-05T05:53:06;18.65;;;9.45;;
40611;SDS011;26317;44.894;20.286;2022-08-05T05:55:38;35.13;;;9.43;;
40611;SDS011;26317;44.894;20.286;2022-08-05T05:58:10;16.98;;;8.35;;
40611;SDS011;26317;44.894;20.286;2022-08-05T06:00:39;12.15;;;7.38;;
40611;SDS011;26317;44.894;20.286;2022-08-05T06:03:08;11.93;;;7.45;;
40611;SDS011;26317;44.894;20.286;2022-08-05T06:05:37;14.13;;;7.97;;
40611;SDS011;26317;44.894;20.286;2022-08-05T06:08:06;14.68;;;8.13;;
40611;SDS011;26317;44.894;20.286;2022-08-05T06:10:34;26.88;;;8.88;;
40611;SDS011;26317;44.894;20.286;2022-08-05T06:13:06;19.88;;;7.30;;
40611;SDS011;26317;44.894;20.286;2022-08-05T06:15:35;17.58;;;7.47;;
40611;SDS011;26317;44.894;20.286;2022-08-05T06:18:04;11.70;;;6.63;;
40611;SDS011;26317;44.894;20.286;2022-08-05T06:20:33;17.48;;;6.70;;
40611;SDS011;26317;44.894;20.286;2022-08-05T06:23:02;10.43;;;6.32;;
40611;SDS011;26317;44.894;20.286;2022-08-05T06:25:33;10.25;;;6.75;;
40611;SDS011;26317;44.894;20.286;2022-08-05T06:28:02;9.02;;;6.07;;
40611;SDS011;26317;44.894;20.286;2022-08-05T06:30:34;10.95;;;6.50;;
40611;SDS011;26317;44.894;20.286;2022-08-05T06:33:03;12.05;;;6.53;;
40611;SDS011;26317;44.894;20.286;2022-08-05T06:35:32;12.43;;;6.00;;
40611;SDS011;26317;44.894;20.286;2022-08-05T06:38:01;12.88;;;6.18;;
40611;SDS011;26317;44.894;20.286;2022-08-05T06:40:30;12.57;;;5.25;;
40611;SDS011;26317;44.894;20.286;2022-08-05T06:42:59;9.57;;;6.70;;
40611;SDS011;26317;44.894;20.286;2022-08-05T06:45:28;8.30;;;5.97;;
40611;SDS011;26317;44.894;20.286;2022-08-05T06:47:59;8.85;;;6.35;;
40611;SDS011;26317;44.894;20.286;2022-08-05T06:50:28;9.82;;;6.50;;
40611;SDS011;26317;44.894;20.286;2022-08-05T06:52:57;15.10;;;6.63;;
40611;SDS011;26317;44.894;20.286;2022-08-05T06:55:26;12.55;;;7.00;;
40611;SDS011;26317;44.894;20.286;2022-08-05T06:57:55;12.57;;;6.53;;
40611;SDS011;26317;44.894;20.286;2022-08-05T07:00:24;9.50;;;6.47;;
40611;SDS011;26317;44.894;20.286;2022-08-05T07:02:53;8.70;;;6.55;;
40611;SDS011;26317;44.894;20.286;2022-08-05T07:05:25;11.18;;;6.93;;
40611;SDS011;26317;44.894;20.286;2022-08-05T07:07:53;11.57;;;6.25;;
40611;SDS011;26317;44.894;20.286;2022-08-05T07:10:22;11.30;;;5.97;;
40611;SDS011;26317;44.894;20.286;2022-08-05T07:12:52;12.40;;;6.05;;
40611;SDS011;26317;44.894;20.286;2022-08-05T07:15:33;6.13;;;5.53;;
40611;SDS011;26317;44.894;20.286;2022-08-05T07:18:17;9.07;;;5.97;;
40611;SDS011;26317;44.894;20.286;2022-08-05T07:20:48;15.73;;;6.03;;
40611;SDS011;26317;44.894;20.286;2022-08-05T07:23:17;10.75;;;5.47;;
40611;SDS011;26317;44.894;20.286;2022-08-05T07:25:46;8.85;;;6.03;;
40611;SDS011;26317;44.894;20.286;2022-08-05T07:28:15;10.18;;;6.00;;
40611;SDS011;26317;44.894;20.286;2022-08-05T07:30:44;7.95;;;5.88;;
40611;SDS011;26317;44.894;20.286;2022-08-05T07:33:13;11.05;;;5.60;;
40611;SDS011;26317;44.894;20.286;2022-08-05T07:35:42;8.25;;;5.70;;
40611;SDS011;26317;44.894;20.286;2022-08-05T07:38:14;10.23;;;5.65;;
40611;SDS011;26317;44.894;20.286;2022-08-05T07:40:44;5.80;;;4.30;;
40611;SDS011;26317;44.894;20.286;2022-08-05T07:43:13;11.07;;;5.55;;
40611;SDS011;26317;44.894;20.286;2022-08-05T07:45:42;7.90;;;4.70;;
40611;SDS011;26317;44.894;20.286;2022-08-05T07:48:11;7.97;;;4.80;;
40611;SDS011;26317;44.894;20.286;2022-08-05T07:50:40;8.48;;;5.38;;
40611;SDS011;26317;44.894;20.286;2022-08-05T07:53:09;6.38;;;5.00;;
40611;SDS011;26317;44.894;20.286;2022-08-05T07:55:40;8.55;;;5.05;;
40611;SDS011;26317;44.894;20.286;2022-08-05T07:58:09;6.55;;;4.57;;
40611;SDS011;26317;44.894;20.286;2022-08-05T08:00:38;6.15;;;4.10;;
40611;SDS011;26317;44.894;20.286;2022-08-05T08:03:08;4.68;;;4.13;;
40611;SDS011;26317;44.894;20.286;2022-08-05T08:05:39;7.93;;;4.05;;
40611;SDS011;26317;44.894;20.286;2022-08-05T08:08:08;4.35;;;3.90;;
40611;SDS011;26317;44.894;20.286;2022-08-05T08:10:37;8.55;;;4.13;;
40611;SDS011;26317;44.894;20.286;2022-08-05T08:13:08;11.57;;;4.57;;
40611;SDS011;26317;44.894;20.286;2022-08-05T08:15:38;12.85;;;4.68;;
40611;SDS011;26317;44.894;20.286;2022-08-05T08:18:07;9.70;;;4.53;;
40611;SDS011;26317;44.894;20.286;2022-08-05T08:20:36;10.20;;;4.65;;
40611;SDS011;26317;44.894;20.286;2022-08-05T08:23:05;10.45;;;4.28;;
40611;SDS011;26317;44.894;20.286;2022-08-05T08:25:33;4.65;;;4.18;;
40611;SDS011;26317;44.894;20.286;2022-08-05T08:28:05;8.40;;;4.53;;
40611;SDS011;26317;44.894;20.286;2022-08-05T08:30:34;7.53;;;3.65;;
40611;SDS011;26317;44.894;20.286;2022-08-05T08:33:06;7.13;;;3.78;;
40611;SDS011;26317;44.894;20.286;2022-08-05T08:35:35;12.57;;;4.47;;
40611;SDS011;26317;44.894;20.286;2022-08-05T08:38:04;10.85;;;4.55;;
40611;SDS011;26317;44.894;20.286;2022-08-05T08:40:33;4.28;;;3.35;;
40611;SDS011;26317;44.894;20.286;2022-08-05T08:43:05;5.32;;;3.00;;
40611;SDS011;26317;44.894;20.286;2022-08-05T08:45:35;7.53;;;3.10;;
40611;SDS011;26317;44.894;20.286;2022-08-05T08:48:05;4.38;;;3.10;;
40611;SDS011;26317;44.894;20.286;2022-08-05T08:53:07;6.00;;;3.38;;
40611;SDS011;26317;44.894;20.286;2022-08-05T08:55:39;4.35;;;2.92;;
40611;SDS011;26317;44.894;20.286;2022-08-05T08:58:10;5.05;;;2.38;;
40611;SDS011;26317;44.894;20.286;2022-08-05T09:00:42;3.05;;;2.17;;
40611;SDS011;26317;44.894;20.286;2022-08-05T09:03:13;2.33;;;2.13;;
40611;SDS011;26317;44.894;20.286;2022-08-05T09:05:42;3.30;;;2.05;;
40611;SDS011;26317;44.894;20.286;2022-08-05T09:08:11;3.63;;;2.50;;
40611;SDS011;26317;44.894;20.286;2022-08-05T09:10:41;5.03;;;2.85;;
40611;SDS011;26317;44.894;20.286;2022-08-05T09:13:14;6.28;;;2.70;;
40611;SDS011;26317;44.894;20.286;2022-08-05T09:15:44;3.28;;;2.65;;
40611;SDS011;26317;44.894;20.286;2022-08-05T09:18:13;4.63;;;2.85;;
40611;SDS011;26317;44.894;20.286;2022-08-05T09:20:43;4.82;;;3.28;;
40611;SDS011;26317;44.894;20.286;2022-08-05T09:23:12;4.32;;;3.25;;
40611;SDS011;26317;44.894;20.286;2022-08-05T09:25:43;6.72;;;3.20;;
40611;SDS011;26317;44.894;20.286;2022-08-05T09:28:17;5.85;;;3.70;;
40611;SDS011;26317;44.894;20.286;2022-08-05T09:30:53;4.63;;;2.80;;
40611;SDS011;26317;44.894;20.286;2022-08-05T09:33:25;10.43;;;3.63;;
40611;SDS011;26317;44.894;20.286;2022-08-05T09:35:57;5.32;;;3.38;;
40611;SDS011;26317;44.894;20.286;2022-08-05T09:38:27;7.25;;;3.15;;
40611;SDS011;26317;44.894;20.286;2022-08-05T09:41:03;6.65;;;4.20;;
40611;SDS011;26317;44.894;20.286;2022-08-05T09:43:37;7.03;;;3.35;;
40611;SDS011;26317;44.894;20.286;2022-08-05T09:46:06;5.05;;;3.40;;
40611;SDS011;26317;44.894;20.286;2022-08-05T09:48:51;11.95;;;3.58;;
40611;SDS011;26317;44.894;20.286;2022-08-05T09:51:29;5.00;;;3.50;;
40611;SDS011;26317;44.894;20.286;2022-08-05T09:53:59;5.03;;;3.40;;
40611;SDS011;26317;44.894;20.286;2022-08-05T09:56:31;6.35;;;3.30;;
40611;SDS011;26317;44.894;20.286;2022-08-05T09:59:05;6.07;;;2.90;;
40611;SDS011;26317;44.894;20.286;2022-08-05T10:01:36;3.85;;;3.25;;
40611;SDS011;26317;44.894;20.286;2022-08-05T10:04:09;3.78;;;2.70;;
40611;SDS011;26317;44.894;20.286;2022-08-05T10:06:39;6.93;;;3.90;;
40611;SDS011;26317;44.894;20.286;2022-08-05T10:09:10;4.25;;;2.92;;
40611;SDS011;26317;44.894;20.286;2022-08-05T10:11:41;7.03;;;3.28;;
40611;SDS011;26317;44.894;20.286;2022-08-05T10:14:23;4.00;;;3.03;;
40611;SDS011;26317;44.894;20.286;2022-08-05T10:16:54;3.80;;;3.45;;
40611;SDS011;26317;44.894;20.286;2022-08-05T10:19:25;3.17;;;2.90;;
40611;SDS011;26317;44.894;20.286;2022-08-05T10:21:55;7.32;;;3.22;;
40611;SDS011;26317;44.894;20.286;2022-08-05T10:24:24;5.38;;;3.40;;
40611;SDS011;26317;44.894;20.286;2022-08-05T10:26:54;6.68;;;3.60;;
40611;SDS011;26317;44.894;20.286;2022-08-05T10:29:27;2.83;;;2.60;;
40611;SDS011;26317;44.894;20.286;2022-08-05T10:32:01;3.05;;;2.83;;
40611;SDS011;26317;44.894;20.286;2022-08-05T10:34:30;3.15;;;2.95;;
40611;SDS011;26317;44.894;20.286;2022-08-05T10:36:59;4.03;;;2.53;;
40611;SDS011;26317;44.894;20.286;2022-08-05T10:39:29;3.13;;;2.83;;
40611;SDS011;26317;44.894;20.286;2022-08-05T10:42:03;4.65;;;3.10;;
40611;SDS011;26317;44.894;20.286;2022-08-05T10:44:44;8.70;;;3.42;;
40611;SDS011;26317;44.894;20.286;2022-08-05T10:47:14;3.42;;;3.13;;
40611;SDS011;26317;44.894;20.286;2022-08-05T10:49:58;5.22;;;3.10;;
40611;SDS011;26317;44.894;20.286;2022-08-05T10:52:36;3.90;;;3.05;;
40611;SDS011;26317;44.894;20.286;2022-08-05T10:55:08;3.13;;;2.92;;
40611;SDS011;26317;44.894;20.286;2022-08-05T11:00:11;2.87;;;2.60;;
40611;SDS011;26317;44.894;20.286;2022-08-05T11:05:42;7.00;;;2.95;;
40611;SDS011;26317;44.894;20.286;2022-08-05T11:08:31;4.50;;;3.05;;
40611;SDS011;26317;44.894;20.286;2022-08-05T11:14:03;3.83;;;3.42;;
40611;SDS011;26317;44.894;20.286;2022-08-05T11:16:35;3.70;;;3.40;;
40611;SDS011;26317;44.894;20.286;2022-08-05T11:21:55;5.00;;;2.58;;
40611;SDS011;26317;44.894;20.286;2022-08-05T11:24:44;3.45;;;2.90;;
40611;SDS011;26317;44.894;20.286;2022-08-05T11:27:28;8.35;;;3.05;;
40611;SDS011;26317;44.894;20.286;2022-08-05T11:29:58;5.57;;;3.10;;
40611;SDS011;26317;44.894;20.286;2022-08-05T11:32:30;4.10;;;2.72;;
40611;SDS011;26317;44.894;20.286;2022-08-05T11:34:59;6.50;;;2.97;;
40611;SDS011;26317;44.894;20.286;2022-08-05T11:37:41;14.90;;;3.25;;
40611;SDS011;26317;44.894;20.286;2022-08-05T11:43:27;3.50;;;3.15;;
40611;SDS011;26317;44.894;20.286;2022-08-05T11:45:57;3.27;;;3.00;;
40611;SDS011;26317;44.894;20.286;2022-08-05T11:48:29;4.57;;;3.10;;
40611;SDS011;26317;44.894;20.286;2022-08-05T11:50:58;3.60;;;2.92;;
40611;SDS011;26317;44.894;20.286;2022-08-05T11:53:28;6.15;;;3.33;;
40611;SDS011;26317;44.894;20.286;2022-08-05T11:55:58;3.00;;;2.80;;
40611;SDS011;26317;44.894;20.286;2022-08-05T11:58:29;4.78;;;3.10;;
40611;SDS011;26317;44.894;20.286;2022-08-05T12:01:01;6.03;;;2.97;;
40611;SDS011;26317;44.894;20.286;2022-08-05T12:03:42;3.78;;;3.47;;
40611;SDS011;26317;44.894;20.286;2022-08-05T12:06:14;6.82;;;3.58;;
40611;SDS011;26317;44.894;20.286;2022-08-05T12:11:16;4.00;;;2.60;;
40611;SDS011;26317;44.894;20.286;2022-08-05T12:13:52;5.40;;;2.95;;
40611;SDS011;26317;44.894;20.286;2022-08-05T12:16:23;4.00;;;3.05;;
40611;SDS011;26317;44.894;20.286;2022-08-05T12:18:55;5.55;;;3.40;;
40611;SDS011;26317;44.894;20.286;2022-08-05T12:21:25;11.35;;;3.50;;
40611;SDS011;26317;44.894;20.286;2022-08-05T12:24:00;3.40;;;3.13;;
40611;SDS011;26317;44.894;20.286;2022-08-05T12:26:30;4.18;;;2.80;;
40611;SDS011;26317;44.894;20.286;2022-08-05T12:31:30;3.78;;;2.83;;
40611;SDS011;26317;44.894;20.286;2022-08-05T12:34:02;4.20;;;2.90;;
40611;SDS011;26317;44.894;20.286;2022-08-05T12:36:34;7.63;;;2.97;;
40611;SDS011;26317;44.894;20.286;2022-08-05T12:41:33;4.18;;;3.10;;
40611;SDS011;26317;44.894;20.286;2022-08-05T12:44:04;6.65;;;3.20;;
40611;SDS011;26317;44.894;20.286;2022-08-05T12:46:35;3.83;;;3.47;;
40611;SDS011;26317;44.894;20.286;2022-08-05T12:49:08;5.55;;;3.30;;
40611;SDS011;26317;44.894;20.286;2022-08-05T12:51:45;5.85;;;3.25;;
40611;SDS011;26317;44.894;20.286;2022-08-05T12:54:19;4.88;;;3.33;;
40611;SDS011;26317;44.894;20.286;2022-08-05T12:56:50;3.30;;;2.90;;
40611;SDS011;26317;44.894;20.286;2022-08-05T12:59:21;3.88;;;3.58;;
40611;SDS011;26317;44.894;20.286;2022-08-05T13:01:54;4.88;;;2.95;;
40611;SDS011;26317;44.894;20.286;2022-08-05T13:04:28;5.22;;;3.08;;
40611;SDS011;26317;44.894;20.286;2022-08-05T13:07:00;4.53;;;2.95;;
40611;SDS011;26317;44.894;20.286;2022-08-05T13:09:31;3.88;;;2.85;;
40611;SDS011;26317;44.894;20.286;2022-08-05T13:12:02;7.00;;;2.88;;
40611;SDS011;26317;44.894;20.286;2022-08-05T13:14:34;3.33;;;3.13;;
40611;SDS011;26317;44.894;20.286;2022-08-05T13:17:08;4.55;;;3.42;;
40611;SDS011;26317;44.894;20.286;2022-08-05T13:19:59;5.20;;;3.00;;
40611;SDS011;26317;44.894;20.286;2022-08-05T13:22:30;4.85;;;3.10;;
40611;SDS011;26317;44.894;20.286;2022-08-05T13:25:01;7.10;;;3.90;;
40611;SDS011;26317;44.894;20.286;2022-08-05T13:27:32;6.78;;;3.75;;
40611;SDS011;26317;44.894;20.286;2022-08-05T13:30:02;7.53;;;3.15;;
40611;SDS011;26317;44.894;20.286;2022-08-05T13:32:33;7.13;;;3.50;;
40611;SDS011;26317;44.894;20.286;2022-08-05T13:35:04;6.35;;;2.85;;
40611;SDS011;26317;44.894;20.286;2022-08-05T13:37:34;4.45;;;3.30;;
40611;SDS011;26317;44.894;20.286;2022-08-05T13:40:03;6.28;;;3.50;;
40611;SDS011;26317;44.894;20.286;2022-08-05T13:42:33;6.40;;;3.63;;
40611;SDS011;26317;44.894;20.286;2022-08-05T13:45:04;4.22;;;3.58;;
40611;SDS011;26317;44.894;20.286;2022-08-05T13:47:34;3.30;;;2.95;;
40611;SDS011;26317;44.894;20.286;2022-08-05T13:50:06;3.97;;;3.65;;
40611;SDS011;26317;44.894;20.286;2022-08-05T13:52:35;3.95;;;3.30;;
40611;SDS011;26317;44.894;20.286;2022-08-05T13:55:04;4.70;;;3.22;;
40611;SDS011;26317;44.894;20.286;2022-08-05T13:57:34;3.95;;;3.30;;
40611;SDS011;26317;44.894;20.286;2022-08-05T14:00:03;6.35;;;3.28;;
40611;SDS011;26317;44.894;20.286;2022-08-05T14:02:34;5.03;;;3.15;;
40611;SDS011;26317;44.894;20.286;2022-08-05T14:05:06;3.53;;;3.03;;
40611;SDS011;26317;44.894;20.286;2022-08-05T14:07:41;5.75;;;3.17;;
40611;SDS011;26317;44.894;20.286;2022-08-05T14:10:12;3.00;;;2.80;;
40611;SDS011;26317;44.894;20.286;2022-08-05T14:12:43;6.05;;;3.63;;
40611;SDS011;26317;44.894;20.286;2022-08-05T14:15:13;9.20;;;3.30;;
40611;SDS011;26317;44.894;20.286;2022-08-05T14:17:42;3.92;;;3.38;;
40611;SDS011;26317;44.894;20.286;2022-08-05T14:20:14;4.88;;;2.90;;
40611;SDS011;26317;44.894;20.286;2022-08-05T14:22:42;4.30;;;2.75;;
40611;SDS011;26317;44.894;20.286;2022-08-05T14:25:11;7.93;;;3.42;;
40611;SDS011;26317;44.894;20.286;2022-08-05T14:27:42;4.50;;;3.10;;
40611;SDS011;26317;44.894;20.286;2022-08-05T14:30:12;4.07;;;3.08;;
40611;SDS011;26317;44.894;20.286;2022-08-05T14:32:41;5.28;;;3.10;;
40611;SDS011;26317;44.894;20.286;2022-08-05T14:35:10;10.15;;;3.17;;
40611;SDS011;26317;44.894;20.286;2022-08-05T14:37:42;4.80;;;3.25;;
40611;SDS011;26317;44.894;20.286;2022-08-05T14:40:11;9.25;;;3.35;;
40611;SDS011;26317;44.894;20.286;2022-08-05T14:42:40;9.43;;;3.58;;
40611;SDS011;26317;44.894;20.286;2022-08-05T14:45:09;7.07;;;3.28;;
40611;SDS011;26317;44.894;20.286;2022-08-05T14:47:38;7.22;;;3.08;;
40611;SDS011;26317;44.894;20.286;2022-08-05T14:50:07;3.60;;;3.20;;
40611;SDS011;26317;44.894;20.286;2022-08-05T14:52:36;3.30;;;3.00;;
40611;SDS011;26317;44.894;20.286;2022-08-05T14:55:08;5.88;;;3.50;;
40611;SDS011;26317;44.894;20.286;2022-08-05T14:57:37;5.60;;;3.13;;
40611;SDS011;26317;44.894;20.286;2022-08-05T15:00:07;5.20;;;3.05;;
40611;SDS011;26317;44.894;20.286;2022-08-05T15:02:37;5.88;;;2.70;;
40611;SDS011;26317;44.894;20.286;2022-08-05T15:05:06;6.22;;;3.13;;
40611;SDS011;26317;44.894;20.286;2022-08-05T15:07:37;3.83;;;3.45;;
40611;SDS011;26317;44.894;20.286;2022-08-05T15:10:08;5.90;;;3.17;;
40611;SDS011;26317;44.894;20.286;2022-08-05T15:12:37;2.97;;;2.75;;
40611;SDS011;26317;44.894;20.286;2022-08-05T15:15:07;4.80;;;3.85;;
40611;SDS011;26317;44.894;20.286;2022-08-05T15:17:37;4.75;;;3.10;;
40611;SDS011;26317;44.894;20.286;2022-08-05T15:20:06;5.32;;;3.85;;
40611;SDS011;26317;44.894;20.286;2022-08-05T15:22:36;5.05;;;2.75;;
40611;SDS011;26317;44.894;20.286;2022-08-05T15:25:05;4.80;;;2.92;;
40611;SDS011;26317;44.894;20.286;2022-08-05T15:27:37;4.72;;;3.58;;
40611;SDS011;26317;44.894;20.286;2022-08-05T15:30:07;3.80;;;3.50;;